createdAt,value
2017-08-09T00:00:35.193Z,998.01
2017-08-09T00:01:45.539Z,997.96
2017-08-09T00:02:55.891Z,997.96
2017-08-09T00:04:05.928Z,997.94
2017-08-09T00:05:16.379Z,997.95
2017-08-09T00:06:26.719Z,997.94
2017-08-09T00:07:37.058Z,997.94
2017-08-09T00:08:47.395Z,997.97
2017-08-09T00:09:57.735Z,997.97
2017-08-09T00:11:08.128Z,998.05
2017-08-09T00:12:17.859Z,998.07
2017-08-09T00:13:27.901Z,998.11
2017-08-09T00:14:37.937Z,998.09
2017-08-09T00:15:47.963Z,998.11
2017-08-09T00:16:58.356Z,998.18
2017-08-09T00:18:08.717Z,998.16
2017-08-09T00:19:18.765Z,998.2
2017-08-09T00:20:29.127Z,998.18
2017-08-09T00:21:39.494Z,998.16
2017-08-09T00:22:49.886Z,998.18
2017-08-09T00:23:59.907Z,998.13
2017-08-09T00:25:09.932Z,998.08
2017-08-09T00:26:19.958Z,998.03
2017-08-09T00:27:30.298Z,997.99
2017-08-09T00:28:40.394Z,997.98
2017-08-09T00:29:50.750Z,997.92
2017-08-09T00:31:00.772Z,997.95
2017-08-09T00:32:11.113Z,998.01
2017-08-09T00:33:21.468Z,998
2017-08-09T00:34:31.843Z,998.01
2017-08-09T00:35:41.889Z,998.02
2017-08-09T00:36:53.492Z,998
2017-08-09T00:38:03.843Z,997.99
2017-08-09T00:39:14.206Z,997.96
2017-08-09T00:40:24.601Z,998.01
2017-08-09T00:41:34.978Z,997.98
2017-08-09T00:42:45.345Z,998.02
2017-08-09T00:43:55.690Z,998.06
2017-08-09T00:45:06.032Z,998.1
2017-08-09T00:46:16.432Z,998.05
2017-08-09T00:47:26.783Z,998.08
2017-08-09T00:48:36.821Z,998.05
2017-08-09T00:49:47.179Z,998.05
2017-08-09T00:50:57.527Z,998.1
2017-08-09T00:52:08.964Z,998.13
2017-08-09T00:53:19.542Z,998.17
2017-08-09T00:54:29.568Z,998.21
2017-08-09T00:55:39.608Z,998.22
2017-08-09T00:56:49.973Z,998.26
2017-08-09T00:58:00.355Z,998.25
2017-08-09T00:59:10.694Z,998.31
2017-08-09T01:00:20.722Z,998.32
2017-08-09T01:01:30.767Z,998.34
2017-08-09T01:02:41.103Z,998.37
2017-08-09T01:03:51.503Z,998.39
2017-08-09T01:05:01.842Z,998.39
2017-08-09T01:06:12.185Z,998.47
2017-08-09T01:07:22.533Z,998.43
2017-08-09T01:08:32.885Z,998.47
2017-08-09T01:09:42.996Z,998.49
2017-08-09T01:10:53.013Z,998.45
2017-08-09T01:12:03.357Z,998.49
2017-08-09T01:13:13.708Z,998.43
2017-08-09T01:14:24.062Z,998.54
2017-08-09T01:15:34.456Z,998.48
2017-08-09T01:16:44.506Z,998.48
2017-08-09T01:17:54.534Z,998.48
2017-08-09T01:19:04.871Z,998.44
2017-08-09T01:20:15.210Z,998.44
2017-08-09T01:21:25.614Z,998.47
2017-08-09T01:22:35.950Z,998.44
2017-08-09T01:23:46.282Z,998.45
2017-08-09T01:24:56.314Z,998.5
2017-08-09T01:26:06.662Z,998.49
2017-08-09T01:27:17.834Z,998.47
2017-08-09T01:28:27.877Z,998.4
2017-08-09T01:29:37.915Z,998.38
2017-08-09T01:30:48.265Z,998.34
2017-08-09T01:31:58.610Z,998.26
2017-08-09T01:33:08.997Z,998.28
2017-08-09T01:34:19.348Z,998.31
2017-08-09T01:35:29.694Z,998.32
2017-08-09T01:36:40.038Z,998.36
2017-08-09T01:37:50.056Z,998.37
2017-08-09T01:39:00.450Z,998.31
2017-08-09T01:40:10.795Z,998.33
2017-08-09T01:41:20.514Z,998.34
2017-08-09T01:42:30.541Z,998.38
2017-08-09T01:43:40.926Z,998.48
2017-08-09T01:44:51.727Z,998.47
2017-08-09T01:46:02.068Z,998.53
2017-08-09T01:47:12.097Z,998.57
2017-08-09T01:48:21.820Z,998.57
2017-08-09T01:49:32.173Z,998.56
2017-08-09T01:50:42.568Z,998.54
2017-08-09T01:51:52.927Z,998.52
2017-08-09T01:53:03.284Z,998.48
2017-08-09T01:54:15.409Z,998.48
2017-08-09T01:55:25.750Z,998.47
2017-08-09T01:56:36.142Z,998.5
2017-08-09T01:57:46.477Z,998.45
2017-08-09T01:58:56.824Z,998.4
2017-08-09T02:00:07.167Z,998.33
2017-08-09T02:01:17.201Z,998.27
2017-08-09T02:02:27.290Z,998.2
2017-08-09T02:03:37.323Z,998.21
2017-08-09T02:04:47.689Z,998.19
2017-08-09T02:05:57.712Z,998.19
2017-08-09T02:07:08.079Z,998.22
2017-08-09T02:08:17.851Z,998.26
2017-08-09T02:09:29.415Z,998.34
2017-08-09T02:10:39.762Z,998.37
2017-08-09T02:11:51.254Z,998.4
2017-08-09T02:13:01.598Z,998.43
2017-08-09T02:14:12.003Z,998.38
2017-08-09T02:15:22.028Z,998.35
2017-08-09T02:16:32.380Z,998.38
2017-08-09T02:17:42.714Z,998.32
2017-08-09T02:18:53.054Z,998.3
2017-08-09T02:20:03.447Z,998.29
2017-08-09T02:21:13.479Z,998.28
2017-08-09T02:22:23.823Z,998.23
2017-08-09T02:23:33.539Z,998.2
2017-08-09T02:24:43.879Z,998.24
2017-08-09T02:25:54.270Z,998.25
2017-08-09T02:27:04.323Z,998.29
2017-08-09T02:28:14.670Z,998.22
2017-08-09T02:29:25.026Z,998.15
2017-08-09T02:30:35.371Z,998.1
2017-08-09T02:31:45.455Z,998.01
2017-08-09T02:32:55.790Z,998.04
2017-08-09T02:34:06.598Z,998.02
2017-08-09T02:35:16.956Z,997.95
2017-08-09T02:36:27.307Z,997.95
2017-08-09T02:37:37.690Z,997.92
2017-08-09T02:38:48.047Z,997.95
2017-08-09T02:39:58.398Z,997.99
2017-08-09T02:41:08.429Z,998.04
2017-08-09T02:42:18.781Z,998.05
2017-08-09T02:43:29.188Z,998.05
2017-08-09T02:44:39.534Z,997.97
2017-08-09T02:45:49.866Z,997.91
2017-08-09T02:46:59.283Z,997.92
2017-08-09T02:48:09.623Z,997.91
2017-08-09T02:49:19.708Z,997.92
2017-08-09T02:50:30.053Z,997.91
2017-08-09T02:51:40.403Z,997.93
2017-08-09T02:52:50.747Z,997.95
2017-08-09T02:54:01.090Z,997.91
2017-08-09T02:55:12.840Z,997.87
2017-08-09T02:56:23.171Z,997.85
2017-08-09T02:57:33.210Z,997.82
2017-08-09T02:58:43.557Z,997.84
2017-08-09T02:59:53.911Z,997.87
2017-08-09T03:01:04.706Z,997.89
2017-08-09T03:33:44.114Z,997.79
2017-08-09T03:34:55.962Z,997.77
2017-08-09T03:36:05.986Z,997.79
2017-08-09T03:37:16.335Z,997.81
2017-08-09T03:38:29.712Z,997.84
2017-08-09T03:39:40.099Z,997.89
2017-08-09T03:40:50.440Z,997.84
2017-08-09T03:42:00.768Z,997.85
2017-08-09T03:43:11.102Z,997.85
2017-08-09T03:44:21.448Z,997.84
2017-08-09T03:45:31.876Z,997.91
2017-08-09T03:46:42.213Z,997.9
2017-08-09T03:47:52.558Z,997.92
2017-08-09T03:49:02.897Z,997.91
2017-08-09T03:50:14.744Z,997.9
2017-08-09T03:51:24.817Z,997.9
2017-08-09T03:52:34.828Z,997.94
2017-08-09T03:53:45.978Z,997.95
2017-08-09T03:54:56.331Z,997.98
2017-08-09T03:56:06.372Z,998
2017-08-09T03:57:16.759Z,998
2017-08-09T03:58:26.815Z,997.97
2017-08-09T03:59:37.148Z,997.99
2017-08-09T04:00:47.177Z,998
2017-08-09T04:01:57.199Z,998.01
2017-08-09T04:03:07.597Z,998.01
2017-08-09T04:04:17.636Z,998.04
2017-08-09T04:05:27.985Z,998.07
2017-08-09T04:06:38.010Z,998.13
2017-08-09T04:07:48.348Z,998.14
2017-08-09T04:08:58.422Z,998.13
2017-08-09T04:10:08.769Z,998.14
2017-08-09T04:11:18.798Z,998.07
2017-08-09T04:12:29.141Z,998.07
2017-08-09T04:13:39.487Z,998.13
2017-08-09T04:14:49.894Z,998.12
2017-08-09T04:16:00.241Z,998.18
2017-08-09T04:17:10.278Z,998.19
2017-08-09T04:18:20.642Z,998.23
2017-08-09T04:19:30.987Z,998.21
2017-08-09T04:20:41.389Z,998.22
2017-08-09T04:21:51.735Z,998.29
2017-08-09T04:23:01.143Z,998.28
2017-08-09T04:24:11.195Z,998.29
2017-08-09T04:25:21.542Z,998.31
2017-08-09T04:26:31.933Z,998.34
2017-08-09T04:27:42.275Z,998.34
2017-08-09T04:28:52.624Z,998.37
2017-08-09T04:30:02.972Z,998.37
2017-08-09T04:31:13.017Z,998.43
2017-08-09T04:32:23.413Z,998.35
2017-08-09T04:33:33.769Z,998.36
2017-08-09T04:34:43.801Z,998.38
2017-08-09T04:35:54.133Z,998.37
2017-08-09T04:37:04.475Z,998.44
2017-08-09T04:38:14.576Z,998.42
2017-08-09T04:39:24.603Z,998.38
2017-08-09T04:40:34.957Z,998.35
2017-08-09T04:41:45.293Z,998.39
2017-08-09T04:42:55.633Z,998.44
2017-08-09T04:44:06.033Z,998.5
2017-08-09T04:45:16.059Z,998.57
2017-08-09T04:46:26.418Z,998.57
2017-08-09T04:47:36.761Z,998.6
2017-08-09T04:48:47.101Z,998.61
2017-08-09T04:49:57.494Z,998.66
2017-08-09T04:51:07.840Z,998.72
2017-08-09T04:52:17.878Z,998.67
2017-08-09T04:53:27.924Z,998.71
2017-08-09T04:54:37.953Z,998.89
2017-08-09T04:55:48.356Z,998.89
2017-08-09T04:56:58.718Z,998.93
2017-08-09T04:58:10.717Z,999
2017-08-09T04:59:20.733Z,999.07
2017-08-09T05:00:30.764Z,999.11
2017-08-09T05:01:40.849Z,999.13
2017-08-09T05:02:51.184Z,999.12
2017-08-09T05:04:01.212Z,999.16
2017-08-09T05:05:11.257Z,999.13
2017-08-09T05:06:21.603Z,999.03
2017-08-09T05:07:32.020Z,999.06
2017-08-09T05:08:42.370Z,999.07
2017-08-09T05:09:52.418Z,999.03
2017-08-09T05:11:02.463Z,999.03
2017-08-09T05:12:12.197Z,999.05
2017-08-09T05:13:22.267Z,999.09
2017-08-09T05:14:32.300Z,999.17
2017-08-09T05:15:42.330Z,999.17
2017-08-09T05:16:52.362Z,999.22
2017-08-09T05:18:02.407Z,999.26
2017-08-09T05:19:12.908Z,999.3
2017-08-09T05:20:23.255Z,999.36
2017-08-09T05:21:33.612Z,999.39
2017-08-09T05:22:43.327Z,999.41
2017-08-09T05:23:53.365Z,999.44
2017-08-09T05:25:03.758Z,999.45
2017-08-09T05:26:14.112Z,999.45
2017-08-09T05:27:24.458Z,999.42
2017-08-09T05:28:34.795Z,999.42
2017-08-09T05:29:45.147Z,999.44
2017-08-09T05:30:55.540Z,999.44
2017-08-09T05:32:05.893Z,999.54
2017-08-09T05:33:16.232Z,999.91
2017-08-09T05:34:26.288Z,1000.2
2017-08-09T05:35:36.651Z,1000.05
2017-08-09T05:36:47.044Z,999.88
2017-08-09T05:37:57.410Z,999.34
2017-08-09T05:39:07.433Z,999.99
2017-08-09T05:40:17.473Z,999.93
2017-08-09T05:41:27.818Z,999.84
2017-08-09T05:42:38.216Z,999.9
2017-08-09T05:43:48.580Z,1000.05
2017-08-09T05:44:58.627Z,999.97
2017-08-09T05:46:08.674Z,999.97
2017-08-09T05:47:19.039Z,1000.09
2017-08-09T05:48:29.441Z,1000.08
2017-08-09T05:49:39.796Z,1000.12
2017-08-09T05:50:50.142Z,999.89
2017-08-09T05:52:00.489Z,1000.17
2017-08-09T05:53:10.864Z,1000.05
2017-08-09T05:54:20.632Z,1000.28
2017-08-09T05:55:30.972Z,1000.27
2017-08-09T05:56:41.308Z,1000.24
2017-08-09T05:57:51.655Z,1000.22
2017-08-09T05:59:02.001Z,1000.29
2017-08-09T06:00:13.445Z,1000.33
2017-08-09T06:01:23.488Z,1000.29
2017-08-09T06:02:33.844Z,1000.16
2017-08-09T06:03:44.194Z,1000.04
2017-08-09T06:04:54.567Z,999.87
2017-08-09T06:06:04.964Z,999.91
2017-08-09T06:07:15.312Z,999.97
2017-08-09T06:08:25.347Z,999.96
2017-08-09T06:09:35.715Z,1000.05
2017-08-09T06:10:46.064Z,1000.06
2017-08-09T06:11:56.468Z,1000.06
2017-08-09T06:13:06.511Z,1000.05
2017-08-09T06:14:16.557Z,1000.08
2017-08-09T06:15:26.907Z,1000.04
2017-08-09T06:16:36.946Z,1000.14
2017-08-09T06:17:47.051Z,1000.14
2017-08-09T06:18:57.397Z,1000.13
2017-08-09T06:20:07.745Z,1000.16
2017-08-09T06:21:18.097Z,1000.12
2017-08-09T06:22:28.136Z,1000.13
2017-08-09T06:23:38.216Z,1000.16
2017-08-09T06:24:48.247Z,1000.24
2017-08-09T06:25:58.645Z,1000.3
2017-08-09T06:27:08.994Z,1000.26
2017-08-09T06:28:19.068Z,1000.28
2017-08-09T06:29:29.174Z,1000.28
2017-08-09T06:30:38.919Z,1000.36
2017-08-09T06:31:48.947Z,1000.35
2017-08-09T06:32:59.288Z,1000.39
2017-08-09T06:34:09.635Z,1000.32
2017-08-09T06:35:20.274Z,1000.37
2017-08-09T06:36:30.615Z,1000.37
2017-08-09T06:37:40.960Z,1000.36
2017-08-09T06:38:50.996Z,1000.37
2017-08-09T06:40:01.044Z,1000.38
2017-08-09T06:41:10.823Z,1000.38
2017-08-09T06:42:21.184Z,1000.39
2017-08-09T06:43:31.540Z,1000.38
2017-08-09T06:44:41.887Z,1000.35
2017-08-09T06:45:51.610Z,1000.39
2017-08-09T06:47:01.686Z,1000.34
2017-08-09T06:48:11.708Z,1000.33
2017-08-09T06:49:22.050Z,1000.36
2017-08-09T06:50:32.402Z,1000.31
2017-08-09T06:51:42.446Z,1000.33
2017-08-09T06:52:52.851Z,1000.26
2017-08-09T06:54:02.880Z,1000.3
2017-08-09T06:55:12.930Z,1000.29
2017-08-09T06:56:23.274Z,1000.26
2017-08-09T06:57:33.631Z,1000.23
2017-08-09T06:58:43.709Z,1000.21
2017-08-09T06:59:54.051Z,1000.23
2017-08-09T07:01:04.090Z,1000.2
2017-08-09T07:02:14.119Z,1000.2
2017-08-09T07:03:24.185Z,1000.23
2017-08-09T07:04:34.582Z,1000.25
2017-08-09T07:05:44.920Z,1000.22
2017-08-09T07:06:54.972Z,1000.19
2017-08-09T07:08:05.007Z,1000.19
2017-08-09T07:09:15.364Z,1000.2
2017-08-09T07:10:25.767Z,1000.19
2017-08-09T07:11:35.798Z,1000.19
2017-08-09T07:12:45.835Z,1000.22
2017-08-09T07:13:56.201Z,1000.2
2017-08-09T07:15:06.545Z,1000.21
2017-08-09T07:16:16.953Z,1000.2
2017-08-09T07:17:27.309Z,1000.2
2017-08-09T07:18:37.681Z,1000.21
2017-08-09T07:19:48.035Z,1000.23
2017-08-09T07:20:58.401Z,1000.24
2017-08-09T07:22:08.799Z,1000.24
2017-08-09T07:23:19.146Z,1000.24
2017-08-09T07:24:29.491Z,1000.27
2017-08-09T07:25:39.849Z,1000.23
2017-08-09T07:26:51.996Z,1000.24
2017-08-09T07:28:02.411Z,1000.18
2017-08-09T07:29:12.444Z,1000.19
2017-08-09T07:30:22.481Z,1000.16
2017-08-09T07:31:32.827Z,1000.14
2017-08-09T07:32:43.180Z,1000.1
2017-08-09T07:33:52.950Z,1000.12
2017-08-09T07:35:03.744Z,1000.17
2017-08-09T07:36:14.081Z,1000.19
2017-08-09T07:37:24.439Z,1000.21
2017-08-09T07:38:34.469Z,1000.29
2017-08-09T07:39:44.859Z,1000.29
2017-08-09T07:40:55.201Z,1000.3
2017-08-09T07:42:05.551Z,1000.35
2017-08-09T07:43:15.907Z,1000.35
2017-08-09T07:44:25.948Z,1000.4
2017-08-09T07:45:36.024Z,1000.38
2017-08-09T07:46:46.375Z,1000.42
2017-08-09T07:47:56.747Z,1000.39
2017-08-09T07:49:06.790Z,1000.42
2017-08-09T07:50:17.144Z,1000.49
2017-08-09T07:51:27.541Z,1000.46
2017-08-09T07:52:37.895Z,1000.45
2017-08-09T07:53:48.236Z,1000.5
2017-08-09T07:54:58.583Z,1000.5
2017-08-09T07:56:08.626Z,1000.4
2017-08-09T07:57:18.856Z,1000.43
2017-08-09T07:58:29.245Z,1000.37
2017-08-09T07:59:39.591Z,1000.34
2017-08-09T08:00:49.636Z,1000.41
2017-08-09T08:01:59.693Z,1000.4
2017-08-09T08:03:12.145Z,1000.44
2017-08-09T08:04:22.171Z,1000.46
2017-08-09T08:05:32.530Z,1000.54
2017-08-09T08:06:42.260Z,1000.49
2017-08-09T08:07:52.296Z,1000.48
2017-08-09T08:09:02.711Z,1000.43
2017-08-09T08:10:13.074Z,1000.44
2017-08-09T08:11:23.407Z,1000.47
2017-08-09T08:12:33.754Z,1000.51
2017-08-09T08:13:44.101Z,1000.54
2017-08-09T08:14:54.184Z,1000.53
2017-08-09T08:16:05.998Z,1000.56
2017-08-09T08:17:16.050Z,1000.56
2017-08-09T08:18:28.318Z,1000.54
2017-08-09T08:19:38.655Z,1000.53
2017-08-09T08:20:50.971Z,1000.57
2017-08-09T08:22:01.006Z,1000.59
2017-08-09T08:23:11.355Z,1000.6
2017-08-09T08:24:21.387Z,1000.66
2017-08-09T08:25:31.116Z,1000.66
2017-08-09T08:26:41.526Z,1000.73
2017-08-09T08:27:51.891Z,1000.78
2017-08-09T08:29:01.937Z,1000.77
2017-08-09T08:30:11.985Z,1000.8
2017-08-09T08:31:22.330Z,1000.83
2017-08-09T08:32:32.675Z,1000.79
2017-08-09T08:33:42.748Z,1000.76
2017-08-09T08:34:52.784Z,1000.75
2017-08-09T08:36:03.152Z,1000.8
2017-08-09T08:37:13.548Z,1000.7
2017-08-09T08:38:23.884Z,1000.73
2017-08-09T08:39:34.256Z,1000.73
2017-08-09T08:40:44.622Z,1000.79
2017-08-09T08:41:55.004Z,1000.8
2017-08-09T08:43:05.431Z,1000.86
2017-08-09T08:44:15.494Z,1000.81
2017-08-09T08:45:25.839Z,1000.75
2017-08-09T08:46:35.886Z,1000.77
2017-08-09T08:47:46.256Z,1000.8
2017-08-09T08:48:56.357Z,1000.8
2017-08-09T08:50:06.086Z,1000.83
2017-08-09T08:51:16.427Z,1000.8
2017-08-09T08:52:26.474Z,1000.82
2017-08-09T08:53:36.821Z,1000.8
2017-08-09T08:54:46.918Z,1000.82
2017-08-09T08:55:56.956Z,1000.78
2017-08-09T08:57:06.993Z,1000.74
2017-08-09T08:58:17.349Z,1000.66
2017-08-09T08:59:27.697Z,1000.59
2017-08-09T09:00:37.788Z,1000.58
2017-08-09T09:01:48.138Z,1000.5
2017-08-09T09:02:58.485Z,1000.45
2017-08-09T09:04:08.535Z,1000.4
2017-08-09T09:05:18.583Z,1000.37
2017-08-09T09:06:28.998Z,1000.35
2017-08-09T09:07:39.051Z,1000.29
2017-08-09T09:08:49.426Z,1000.24
2017-08-09T09:09:59.775Z,1000.18
2017-08-09T09:11:09.831Z,1000.15
2017-08-09T09:12:20.272Z,1000.09
2017-08-09T09:13:30.618Z,999.94
2017-08-09T09:14:40.666Z,999.85
2017-08-09T09:15:51.023Z,999.72
2017-08-09T09:17:00.768Z,999.6
2017-08-09T09:18:10.858Z,999.5
2017-08-09T09:19:20.576Z,999.45
2017-08-09T09:20:30.958Z,999.35
2017-08-09T09:21:41.309Z,999.25
2017-08-09T09:22:51.674Z,999.11
2017-08-09T09:24:02.079Z,999.16
2017-08-09T09:25:12.434Z,999.21
2017-08-09T09:26:22.152Z,999.31
2017-08-09T09:27:32.213Z,999.41
2017-08-09T09:28:42.249Z,999.43
2017-08-09T09:29:52.331Z,999.44
2017-08-09T09:31:02.683Z,999.41
2017-08-09T09:32:13.028Z,999.38
2017-08-09T09:33:23.387Z,999.37
2017-08-09T09:34:33.728Z,999.33
2017-08-09T09:35:44.149Z,999.36
2017-08-09T09:36:54.526Z,999.37
2017-08-09T09:38:04.895Z,999.33
2017-08-09T09:39:15.256Z,999.33
2017-08-09T09:40:25.619Z,999.33
2017-08-09T09:41:36.045Z,999.29
2017-08-09T09:42:46.072Z,999.19
2017-08-09T09:43:56.429Z,999.13
2017-08-09T09:45:06.789Z,999.07
2017-08-09T09:46:17.159Z,998.99
2017-08-09T09:47:27.559Z,998.95
2017-08-09T09:48:37.590Z,998.88
2017-08-09T09:49:47.613Z,998.77
2017-08-09T09:50:57.974Z,998.82
2017-08-09T09:52:08.430Z,998.83
2017-08-09T09:53:18.822Z,998.8
2017-08-09T09:54:29.167Z,998.91
2017-08-09T09:55:39.528Z,999.03
2017-08-09T09:56:49.263Z,999.06
2017-08-09T09:57:59.316Z,999.14
2017-08-09T09:59:09.426Z,999.21
2017-08-09T10:00:19.469Z,999.19
2017-08-09T10:01:29.825Z,999.2
2017-08-09T10:02:39.870Z,999.26
2017-08-09T10:03:50.206Z,999.23
2017-08-09T10:05:00.290Z,999.27
2017-08-09T10:06:10.342Z,999.28
2017-08-09T10:07:20.724Z,999.32
2017-08-09T10:08:31.091Z,999.32
2017-08-09T10:09:41.445Z,999.31
2017-08-09T10:10:51.863Z,999.3
2017-08-09T10:12:01.900Z,999.24
2017-08-09T10:13:12.264Z,999.1
2017-08-09T10:14:22.866Z,998.96
2017-08-09T10:15:32.903Z,999.02
2017-08-09T10:16:43.303Z,999
2017-08-09T10:17:53.659Z,999.07
2017-08-09T10:19:04.008Z,999.11
2017-08-09T10:20:14.362Z,999.2
2017-08-09T10:21:24.724Z,999.27
2017-08-09T10:22:34.816Z,999.27
2017-08-09T10:23:45.191Z,999.3
2017-08-09T10:24:55.546Z,999.32
2017-08-09T10:26:05.917Z,999.34
2017-08-09T10:27:15.957Z,999.35
2017-08-09T10:28:26.355Z,999.29
2017-08-09T10:29:36.711Z,999.33
2017-08-09T10:30:47.072Z,999.32
2017-08-09T10:31:57.431Z,999.27
2017-08-09T10:33:07.483Z,999.19
2017-08-09T10:34:17.840Z,999.1
2017-08-09T10:35:28.214Z,999.09
2017-08-09T10:36:38.611Z,999.09
2017-08-09T10:37:48.970Z,999.09
2017-08-09T10:39:00.149Z,999.08
2017-08-09T10:40:10.613Z,999.03
2017-08-09T10:41:21.431Z,998.94
2017-08-09T10:42:31.849Z,998.9
2017-08-09T10:43:41.893Z,998.91
2017-08-09T10:44:52.249Z,998.96
2017-08-09T10:46:02.607Z,999.16
2017-08-09T10:47:13.156Z,999.36
2017-08-09T10:48:23.252Z,999.37
2017-08-09T10:49:33.317Z,999.32
2017-08-09T10:50:43.688Z,999.21
2017-08-09T10:51:53.722Z,999.09
2017-08-09T10:53:03.770Z,998.94
2017-08-09T10:54:13.870Z,998.86
2017-08-09T10:55:24.227Z,998.84
2017-08-09T10:56:34.569Z,998.81
2017-08-09T10:57:44.936Z,998.73
2017-08-09T10:58:55.302Z,998.68
2017-08-09T11:00:05.417Z,998.77
2017-08-09T11:01:15.763Z,998.81
2017-08-09T11:02:25.818Z,998.89
2017-08-09T11:03:36.158Z,998.98
2017-08-09T11:04:46.201Z,999.06
2017-08-09T11:05:56.289Z,999.01
2017-08-09T11:07:06.327Z,999.02
2017-08-09T11:08:16.376Z,998.98
2017-08-09T11:09:26.407Z,998.88
2017-08-09T11:10:36.465Z,998.84
2017-08-09T11:11:46.565Z,998.84
2017-08-09T11:12:56.918Z,998.79
2017-08-09T11:14:07.269Z,998.75
2017-08-09T11:15:17.337Z,998.72
2017-08-09T11:16:29.394Z,998.74
2017-08-09T11:17:39.849Z,998.78
2017-08-09T11:18:49.882Z,998.79
2017-08-09T11:19:59.923Z,998.8
2017-08-09T11:21:10.290Z,998.74
2017-08-09T11:22:20.336Z,998.72
2017-08-09T11:23:30.779Z,998.69
2017-08-09T11:24:41.136Z,998.61
2017-08-09T11:25:51.510Z,998.6
2017-08-09T11:27:01.873Z,998.59
2017-08-09T11:28:12.222Z,998.64
2017-08-09T11:29:22.004Z,998.65
2017-08-09T11:30:32.361Z,998.66
2017-08-09T11:31:42.721Z,998.66
2017-08-09T11:32:53.091Z,998.66
2017-08-09T11:34:03.458Z,998.69
2017-08-09T11:35:13.570Z,998.61
2017-08-09T11:36:23.928Z,998.62
2017-08-09T11:37:33.972Z,998.62
2017-08-09T11:38:44.010Z,998.63
2017-08-09T11:39:55.555Z,998.57
2017-08-09T11:41:06.056Z,998.56
2017-08-09T11:42:16.410Z,998.52
2017-08-09T11:43:26.786Z,998.49
2017-08-09T11:44:37.127Z,998.51
2017-08-09T11:45:47.476Z,998.51
2017-08-09T11:46:57.904Z,998.55
2017-08-09T11:48:08.279Z,998.61
2017-08-09T11:49:18.631Z,998.56
2017-08-09T11:50:28.980Z,998.57
2017-08-09T11:51:39.017Z,998.51
2017-08-09T11:52:49.428Z,998.48
2017-08-09T11:53:59.784Z,998.49
2017-08-09T11:55:10.142Z,998.47
2017-08-09T11:56:20.503Z,998.5
2017-08-09T11:57:30.865Z,998.5
2017-08-09T11:58:41.278Z,998.49
2017-08-09T11:59:51.628Z,998.43
2017-08-09T12:01:02.484Z,998.47
2017-08-09T12:02:14.039Z,998.45
2017-08-09T12:03:24.382Z,998.44
2017-08-09T12:04:34.740Z,998.4
2017-08-09T12:05:45.117Z,998.41
2017-08-09T12:06:54.849Z,998.42
2017-08-09T12:08:05.203Z,998.41
2017-08-09T12:09:15.577Z,998.35
2017-08-09T12:10:25.669Z,998.29
2017-08-09T12:11:35.719Z,998.27
2017-08-09T12:12:46.078Z,998.3
2017-08-09T12:13:56.138Z,998.33
2017-08-09T12:15:06.487Z,998.36
2017-08-09T12:16:16.911Z,998.34
2017-08-09T12:17:27.266Z,998.32
2017-08-09T12:18:37.635Z,998.4
2017-08-09T12:19:49.049Z,998.3
2017-08-09T12:20:59.405Z,998.27
2017-08-09T12:22:09.493Z,998.2
2017-08-09T12:23:19.855Z,998.24
2017-08-09T12:24:30.221Z,998.24
2017-08-09T12:25:40.573Z,998.23
2017-08-09T12:26:50.924Z,998.24
2017-08-09T12:28:03.350Z,998.26
2017-08-09T12:29:13.715Z,998.2
2017-08-09T12:30:24.096Z,998.2
2017-08-09T12:31:34.453Z,998.19
2017-08-09T12:32:44.810Z,998.19
2017-08-09T12:33:55.208Z,998.18
2017-08-09T12:35:05.562Z,998.2
2017-08-09T12:36:15.313Z,998.07
2017-08-09T12:37:25.372Z,998.1
2017-08-09T12:38:35.716Z,998.12
2017-08-09T12:39:47.682Z,998.12
2017-08-09T12:40:58.041Z,998.11
2017-08-09T12:42:09.323Z,998.1
2017-08-09T12:43:19.348Z,998.05
2017-08-09T12:44:29.386Z,998.07
2017-08-09T12:45:39.485Z,998.03
2017-08-09T12:46:49.850Z,997.96
2017-08-09T12:48:00.199Z,998.01
2017-08-09T12:49:10.564Z,997.93
2017-08-09T12:50:20.617Z,997.9
2017-08-09T12:51:31.027Z,997.87
2017-08-09T12:52:41.088Z,997.83
2017-08-09T12:53:51.436Z,997.83
2017-08-09T12:55:01.789Z,997.89
2017-08-09T12:56:11.514Z,997.92
2017-08-09T12:57:21.931Z,997.9
2017-08-09T12:58:32.288Z,997.9
2017-08-09T12:59:42.658Z,997.88
2017-08-09T13:00:52.695Z,997.89
2017-08-09T13:02:03.053Z,997.83
2017-08-09T13:03:15.305Z,997.88
2017-08-09T13:04:25.390Z,997.89
2017-08-09T13:05:35.444Z,997.92
2017-08-09T13:06:45.786Z,997.91
2017-08-09T13:07:56.148Z,997.9
2017-08-09T13:09:06.572Z,997.89
2017-08-09T13:10:17.573Z,997.85
2017-08-09T13:11:27.941Z,997.87
2017-08-09T13:12:37.989Z,997.89
2017-08-09T13:13:48.041Z,997.86
2017-08-09T13:14:58.168Z,997.86
2017-08-09T13:16:08.228Z,997.84
2017-08-09T13:17:18.285Z,997.85
2017-08-09T13:18:28.647Z,997.8
2017-08-09T13:19:39.007Z,997.82
2017-08-09T13:20:49.411Z,997.81
2017-08-09T13:21:59.764Z,997.84
2017-08-09T13:23:09.811Z,997.81
2017-08-09T13:24:19.853Z,997.74
2017-08-09T13:25:30.205Z,997.71
2017-08-09T13:26:40.619Z,997.73
2017-08-09T13:27:50.988Z,997.72
2017-08-09T13:29:01.333Z,997.67
2017-08-09T13:30:11.059Z,997.6
2017-08-09T13:31:21.424Z,997.5
2017-08-09T13:32:31.529Z,997.5
2017-08-09T13:33:41.581Z,997.48
2017-08-09T13:34:51.323Z,997.49
2017-08-09T13:36:02.378Z,997.49
2017-08-09T13:37:12.418Z,997.54
2017-08-09T13:38:22.810Z,997.53
2017-08-09T13:39:33.164Z,997.53
2017-08-09T13:40:42.890Z,997.52
2017-08-09T13:41:53.319Z,997.48
2017-08-09T13:43:03.678Z,997.51
2017-08-09T13:44:13.772Z,997.48
2017-08-09T13:45:24.145Z,997.5
2017-08-09T13:46:34.513Z,997.46
2017-08-09T13:47:44.872Z,997.49
2017-08-09T13:48:55.220Z,997.49
2017-08-09T13:50:05.301Z,997.52
2017-08-09T13:51:15.374Z,997.53
2017-08-09T13:52:25.743Z,997.5
2017-08-09T13:53:36.111Z,997.5
2017-08-09T13:54:46.460Z,997.46
2017-08-09T13:55:56.873Z,997.48
2017-08-09T13:57:07.672Z,997.48
2017-08-09T13:58:18.035Z,997.44
2017-08-09T13:59:28.403Z,997.42
2017-08-09T14:00:38.752Z,997.4
2017-08-09T14:01:49.150Z,997.42
2017-08-09T14:02:59.513Z,997.44
2017-08-09T14:04:09.869Z,997.37
2017-08-09T14:05:20.219Z,997.37
2017-08-09T14:06:30.272Z,997.3
2017-08-09T14:07:40.674Z,997.3
2017-08-09T14:08:50.713Z,997.34
2017-08-09T14:10:01.078Z,997.34
2017-08-09T14:11:12.638Z,997.24
2017-08-09T14:12:23.009Z,997.22
2017-08-09T14:13:32.504Z,997.24
2017-08-09T14:14:42.893Z,997.23
2017-08-09T14:15:53.245Z,997.22
2017-08-09T14:17:02.675Z,997.16
2017-08-09T14:18:13.038Z,997.19
2017-08-09T14:19:23.144Z,997.19
2017-08-09T14:20:33.508Z,997.18
2017-08-09T14:21:43.874Z,997.21
2017-08-09T14:22:54.229Z,997.19
2017-08-09T14:24:04.593Z,997.16
2017-08-09T14:25:15.002Z,997.13
2017-08-09T14:26:25.356Z,997.1
2017-08-09T14:27:35.730Z,997.05
2017-08-09T14:28:46.104Z,997.04
2017-08-09T14:29:56.461Z,997.07
2017-08-09T14:31:06.888Z,997.06
2017-08-09T14:32:16.925Z,997.03
2017-08-09T14:33:26.968Z,996.99
2017-08-09T14:34:36.691Z,997.04
2017-08-09T14:35:46.728Z,997.06
2017-08-09T14:36:57.153Z,997.05
2017-08-09T14:38:07.184Z,996.95
2017-08-09T14:39:17.588Z,996.93
2017-08-09T14:40:27.010Z,996.9
2017-08-09T14:41:37.059Z,996.9
2017-08-09T14:42:47.147Z,996.9
2017-08-09T14:43:57.518Z,996.9
2017-08-09T14:45:07.569Z,996.92
2017-08-09T14:46:17.923Z,996.89
2017-08-09T14:47:27.977Z,996.88
2017-08-09T14:48:38.383Z,996.89
2017-08-09T14:49:48.722Z,996.87
2017-08-09T14:50:59.113Z,996.9
2017-08-09T14:52:09.160Z,996.94
2017-08-09T14:53:19.523Z,996.95
2017-08-09T14:54:29.938Z,996.97
2017-08-09T14:55:39.988Z,996.95
2017-08-09T14:56:49.712Z,996.93
2017-08-09T14:58:00.093Z,996.88
2017-08-09T14:59:10.168Z,996.95
2017-08-09T15:00:20.273Z,996.89
2017-08-09T15:01:30.653Z,996.85
2017-08-09T15:02:41.001Z,996.84
2017-08-09T15:03:51.096Z,996.82
2017-08-09T15:05:01.452Z,996.79
2017-08-09T15:06:11.554Z,996.84